Time;durP1;ratioP1;P1;durP2;ratioP2;P2;SDS_P1;SDS_P2;PMS_P1;PMS_P2;Temp;Humidity;BMP_temperature;BMP_pressure;BME280_temperature;BME280_humidity;BME280_pressure;Samples;Min_cycle;Max_cycle;Signal;HPM_P1;HPM_P2
2021/01/19 00:00:07;;;;;;;;;;;;;;;1.35;93.28;98982.44;5043325;28;20428;-73
2021/01/19 00:02:33;;;;;;;;;;;;;;;1.35;92.70;98974.56;5047225;28;19921;-72
2021/01/19 00:05:00;;;;;;;;;;;;;;;1.37;92.62;98969.09;5026405;28;19922;-74
2021/01/19 00:07:26;;;;;;;;;;;;;;;1.37;92.49;98980.44;5043069;28;20412;-71
2021/01/19 00:09:51;;;;;;;;;;;;;;;1.38;92.38;98973.34;5038250;28;19922;-70
2021/01/19 00:12:16;;;;;;;;;;;;;;;1.40;92.87;98960.81;5049155;28;19929;-70
2021/01/19 00:14:44;;;;;;;;;;;;;;;1.38;92.51;98954.94;5046596;28;20438;-72
2021/01/19 00:17:09;;;;;;;;;;;;;;;1.39;92.81;98965.28;5045518;28;20398;-71
2021/01/19 00:19:34;;;;;;;;;;;;;;;1.39;92.59;98965.28;5046622;28;19963;-73
2021/01/19 00:21:59;;;;;;;;;;;;;;;1.39;92.66;98953.94;5041398;28;20051;-72
2021/01/19 00:24:25;;;;;;;;;;;;;;;1.38;93.09;98944.41;5043789;28;20387;-72
2021/01/19 00:26:50;;;;;;;;;;;;;;;1.41;93.33;98946.69;5042637;28;19967;-73
2021/01/19 00:29:15;;;;;;;;;;;;;;;1.40;93.16;98951.13;5042051;28;19921;-75
2021/01/19 00:31:40;;;;;;;;;;;;;;;1.38;93.49;98953.13;5046987;28;19927;-70
2021/01/19 00:34:05;;;;;;;;;;;;;;;1.39;93.46;98946.88;5047478;28;19921;-74
2021/01/19 00:36:31;;;;;;;;;;;;;;;1.39;93.51;98952.13;5041966;28;19928;-74
2021/01/19 00:38:56;;;;;;;;;;;;;;;1.40;93.82;98935.34;5046565;28;19920;-72
2021/01/19 00:41:21;;;;;;;;;;;;;;;1.40;93.64;98942.41;5045519;28;19928;-73
2021/01/19 00:43:46;;;;;;;;;;;;;;;1.39;93.50;98936.38;5046847;28;20023;-73
2021/01/19 00:46:12;;;;;;;;;;;;;;;1.40;93.52;98929.28;5048590;28;20402;-72
2021/01/19 00:48:37;;;;;;;;;;;;;;;1.41;93.36;98923.03;5043059;28;19929;-74
2021/01/19 00:51:02;;;;;;;;;;;;;;;1.39;93.88;98933.75;5050775;28;19924;-72
2021/01/19 00:53:27;;;;;;;;;;;;;;;1.41;93.62;98925.66;5046566;28;20019;-73
2021/01/19 00:55:52;;;;;;;;;;;;;;;1.42;93.46;98924.66;5049428;28;19986;-74
2021/01/19 00:58:18;;;;;;;;;;;;;;;1.43;93.53;98921.00;5044491;28;19921;-74
2021/01/19 01:00:43;;;;;;;;;;;;;;;1.42;93.38;98919.41;5049813;28;19931;-74
2021/01/19 01:03:08;;;;;;;;;;;;;;;1.42;93.88;98920.19;5050685;28;19931;-70
2021/01/19 01:05:33;;;;;;;;;;;;;;;1.39;93.73;98920.59;5043256;28;19943;-72
2021/01/19 01:08:01;;;;;;;;;;;;;;;1.42;93.94;98917.56;5041656;28;20058;-73
2021/01/19 01:10:27;;;;;;;;;;;;;;;1.42;93.96;98908.88;5050194;28;20310;-71
2021/01/19 01:12:52;;;;;;;;;;;;;;;1.42;93.67;98904.41;5051427;28;19921;-72
2021/01/19 01:15:21;;;;;;;;;;;;;;;1.43;93.59;98900.81;5052748;28;19960;-73
2021/01/19 01:17:46;;;;;;;;;;;;;;;1.44;93.78;98893.72;5052753;28;19921;-70
2021/01/19 01:20:12;;;;;;;;;;;;;;;1.45;93.37;98892.72;5051345;28;19925;-73
2021/01/19 01:22:46;;;;;;;;;;;;;;;1.45;93.52;98890.09;5045477;28;19935;-71
2021/01/19 01:25:12;;;;;;;;;;;;;;;1.45;93.54;98901.44;5048371;28;19921;-71
2021/01/19 01:27:38;;;;;;;;;;;;;;;1.45;93.55;98898.78;5050253;28;20286;-72
2021/01/19 01:30:04;;;;;;;;;;;;;;;1.46;93.39;98889.88;5045075;28;19959;-71
2021/01/19 01:32:30;;;;;;;;;;;;;;;1.45;93.20;98877.75;5050554;28;20020;-70
2021/01/19 01:34:55;;;;;;;;;;;;;;;1.48;93.23;98880.03;5045120;28;19928;-73
2021/01/19 01:37:20;;;;;;;;;;;;;;;1.48;93.04;98868.69;5047492;28;20353;-73
2021/01/19 01:39:45;;;;;;;;;;;;;;;1.46;92.90;98868.84;5044836;28;20310;-73
2021/01/19 01:42:15;;;;;;;;;;;;;;;1.48;93.00;98869.50;5040926;28;19921;-71
2021/01/19 01:44:40;;;;;;;;;;;;;;;1.46;92.91;98855.69;5047819;28;20007;-70
2021/01/19 01:47:10;;;;;;;;;;;;;;;1.46;93.03;98868.06;5053178;28;20039;-71
2021/01/19 01:49:35;;;;;;;;;;;;;;;1.46;92.97;98858.34;5047013;28;20011;-71
2021/01/19 01:52:01;;;;;;;;;;;;;;;1.46;92.61;98862.78;5046083;28;20024;-71
2021/01/19 01:54:26;;;;;;;;;;;;;;;1.46;92.29;98857.53;5044106;28;20035;-74
2021/01/19 01:56:51;;;;;;;;;;;;;;;1.46;92.52;98860.97;5050263;28;19921;-72
2021/01/19 01:59:16;;;;;;;;;;;;;;;1.46;92.70;98853.06;5049271;28;19928;-73
2021/01/19 02:01:42;;;;;;;;;;;;;;;1.46;92.83;98852.28;5047027;28;20445;-74
2021/01/19 02:04:07;;;;;;;;;;;;;;;1.48;93.27;98855.53;5046882;28;20406;-71
2021/01/19 02:06:32;;;;;;;;;;;;;;;1.46;93.11;98853.06;5051437;28;20046;-72
2021/01/19 02:09:04;;;;;;;;;;;;;;;1.46;93.40;98845.19;5047715;28;21739;-73
2021/01/19 02:11:35;;;;;;;;;;;;;;;1.48;93.21;98845.84;5048493;28;19917;-73
2021/01/19 02:14:01;;;;;;;;;;;;;;;1.46;93.69;98836.50;5048669;28;19936;-72
2021/01/19 02:16:29;;;;;;;;;;;;;;;1.46;93.56;98824.16;5048620;28;19990;-71
2021/01/19 02:19:13;;;;;;;;;;;;;;;1.46;93.30;98821.50;5047978;28;20462;-73
2021/01/19 02:21:47;;;;;;;;;;;;;;;1.47;93.60;98809.19;5045234;28;19923;-72
2021/01/19 02:24:35;;;;;;;;;;;;;;;1.47;93.67;98810.00;5047418;28;19944;-72
2021/01/19 02:27:00;;;;;;;;;;;;;;;1.47;93.45;98801.28;5044795;28;19927;-72
2021/01/19 02:29:25;;;;;;;;;;;;;;;1.47;93.26;98790.78;5047243;28;20418;-73
2021/01/19 02:32:09;;;;;;;;;;;;;;;1.47;93.20;98796.84;5043750;28;19924;-74
2021/01/19 02:34:41;;;;;;;;;;;;;;;1.45;93.90;98788.34;5048187;28;20378;-71
2021/01/19 02:37:06;;;;;;;;;;;;;;;1.47;93.74;98788.16;5045551;28;20374;-76
2021/01/19 02:39:50;;;;;;;;;;;;;;;1.47;93.84;98783.72;5048931;28;19917;-71
2021/01/19 02:42:18;;;;;;;;;;;;;;;1.49;94.24;98788.75;5044394;28;20485;-72
2021/01/19 02:44:44;;;;;;;;;;;;;;;1.48;94.24;98782.72;5042937;28;20369;-70
2021/01/19 02:47:10;;;;;;;;;;;;;;;1.48;94.07;98779.28;5046500;28;20386;-69
2021/01/19 02:49:35;;;;;;;;;;;;;;;1.49;94.37;98776.44;5051218;28;19956;-70
2021/01/19 02:52:01;;;;;;;;;;;;;;;1.49;94.44;98784.31;5046515;28;19935;-73
2021/01/19 02:54:40;;;;;;;;;;;;;;;1.49;94.15;98783.50;5046544;28;20278;-73
2021/01/19 02:57:12;;;;;;;;;;;;;;;1.52;94.05;98773.44;5049976;28;19917;-72
2021/01/19 02:59:38;;;;;;;;;;;;;;;1.50;94.42;98759.66;5065954;28;19917;-74
2021/01/19 03:02:06;;;;;;;;;;;;;;;1.48;94.46;98766.13;5048636;28;20370;-74
2021/01/19 03:04:32;;;;;;;;;;;;;;;1.51;94.68;98763.91;5050943;28;20458;-72
2021/01/19 03:07:02;;;;;;;;;;;;;;;1.52;94.79;98762.91;5045942;28;19927;-70
2021/01/19 03:09:28;;;;;;;;;;;;;;;1.55;94.08;98751.19;5047685;28;19963;-72
2021/01/19 03:11:55;;;;;;;;;;;;;;;1.56;94.65;98754.63;5049091;28;19916;-70
2021/01/19 03:14:21;;;;;;;;;;;;;;;1.54;95.02;98749.56;5049281;28;19916;-72
2021/01/19 03:16:47;;;;;;;;;;;;;;;1.55;94.87;98753.00;5048634;28;20461;-70
2021/01/19 03:19:12;;;;;;;;;;;;;;;1.56;95.06;98752.81;5043401;28;19917;-70
2021/01/19 03:21:37;;;;;;;;;;;;;;;1.57;94.81;98745.75;5045106;28;19920;-73
2021/01/19 03:24:02;;;;;;;;;;;;;;;1.58;95.03;98734.19;5045723;28;20649;-70
2021/01/19 03:26:28;;;;;;;;;;;;;;;1.59;94.76;98733.22;5050623;28;20055;-70
2021/01/19 03:28:53;;;;;;;;;;;;;;;1.58;94.71;98734.19;5047427;28;19921;-72
2021/01/19 03:31:18;;;;;;;;;;;;;;;1.58;94.90;98723.69;5047393;28;19921;-71
2021/01/19 03:33:43;;;;;;;;;;;;;;;1.56;94.90;98721.25;5049619;28;19928;-72
2021/01/19 03:36:09;;;;;;;;;;;;;;;1.57;94.91;98724.69;5048448;28;19939;-71
2021/01/19 03:38:34;;;;;;;;;;;;;;;1.56;94.85;98716.00;5048318;28;20010;-72
2021/01/19 03:40:59;;;;;;;;;;;;;;;1.59;94.70;98715.63;5049248;28;19912;-73
2021/01/19 03:43:24;;;;;;;;;;;;;;;1.57;94.77;98716.81;5048288;28;19921;-71
2021/01/19 03:45:50;;;;;;;;;;;;;;;1.56;94.82;98717.81;5049883;28;19929;-72
2021/01/19 03:48:15;;;;;;;;;;;;;;;1.58;95.39;98713.97;5047085;28;19928;-74
2021/01/19 03:50:41;;;;;;;;;;;;;;;1.60;94.86;98716.41;5038010;28;19921;-72
2021/01/19 03:53:06;;;;;;;;;;;;;;;1.58;95.16;98716.59;5046062;28;20378;-73
2021/01/19 03:55:31;;;;;;;;;;;;;;;1.59;94.96;98712.16;5045986;28;19924;-72
2021/01/19 03:57:57;;;;;;;;;;;;;;;1.60;95.17;98708.50;5048654;28;19916;-73
2021/01/19 04:00:23;;;;;;;;;;;;;;;1.60;95.20;98704.06;5046479;28;19971;-74
2021/01/19 04:02:48;;;;;;;;;;;;;;;1.60;95.38;98690.09;5045378;28;19916;-72
2021/01/19 04:05:13;;;;;;;;;;;;;;;1.63;95.05;98694.97;5046597;28;19928;-74
2021/01/19 04:07:39;;;;;;;;;;;;;;;1.60;95.40;98696.19;5050132;28;19921;-71
2021/01/19 04:10:06;;;;;;;;;;;;;;;1.63;95.10;98695.81;5047533;28;19920;-74
2021/01/19 04:12:31;;;;;;;;;;;;;;;1.62;94.85;98678.38;5042384;28;19925;-74
2021/01/19 04:14:57;;;;;;;;;;;;;;;1.66;94.87;98681.47;5046264;28;19966;-71
2021/01/19 04:17:22;;;;;;;;;;;;;;;1.66;95.15;98676.19;5049705;28;19924;-73
2021/01/19 04:19:47;;;;;;;;;;;;;;;1.67;95.08;98675.16;5048563;28;19946;-72
2021/01/19 04:22:13;;;;;;;;;;;;;;;1.65;95.11;98671.94;5047745;28;19924;-72
2021/01/19 04:24:38;;;;;;;;;;;;;;;1.64;94.56;98672.94;5050407;28;19920;-73
2021/01/19 04:27:03;;;;;;;;;;;;;;;1.63;94.51;98661.59;5051310;28;19970;-74
2021/01/19 04:29:28;;;;;;;;;;;;;;;1.65;94.68;98656.16;5050388;28;19983;-72
2021/01/19 04:31:54;;;;;;;;;;;;;;;1.65;94.90;98643.81;5038129;28;20500;-71
2021/01/19 04:34:19;;;;;;;;;;;;;;;1.64;94.50;98636.13;5040561;28;20263;-75
2021/01/19 04:36:44;;;;;;;;;;;;;;;1.63;94.60;98642.38;5047164;28;20011;-71
2021/01/19 04:39:09;;;;;;;;;;;;;;;1.61;94.83;98639.97;5048417;28;19924;-72
2021/01/19 04:41:35;;;;;;;;;;;;;;;1.60;94.79;98632.25;5048703;28;19920;-70
2021/01/19 04:44:01;;;;;;;;;;;;;;;1.60;94.32;98626.97;5052563;28;19923;-74
2021/01/19 04:46:26;;;;;;;;;;;;;;;1.61;94.46;98628.63;5052509;28;19927;-71
2021/01/19 04:48:53;;;;;;;;;;;;;;;1.62;94.31;98625.78;5045554;28;19921;-71
2021/01/19 04:51:23;;;;;;;;;;;;;;;1.62;93.93;98625.00;5046717;28;19921;-70
2021/01/19 04:54:03;;;;;;;;;;;;;;;1.60;94.12;98617.28;5050196;28;20386;-70
2021/01/19 04:56:29;;;;;;;;;;;;;;;1.62;94.11;98619.72;5052226;28;19916;-72
2021/01/19 04:58:55;;;;;;;;;;;;;;;1.62;94.10;98625.00;5050967;28;20407;-70
2021/01/19 05:01:28;;;;;;;;;;;;;;;1.59;93.54;98618.31;5046586;28;19971;-71
2021/01/19 05:03:57;;;;;;;;;;;;;;;1.60;94.07;98611.19;5048700;28;19975;-70
2021/01/19 05:06:34;;;;;;;;;;;;;;;1.58;93.47;98610.59;5049044;28;20367;-72
2021/01/19 05:09:07;;;;;;;;;;;;;;;1.57;93.89;98612.44;5038581;28;19917;-71
2021/01/19 05:11:35;;;;;;;;;;;;;;;1.58;93.38;98603.53;5049421;28;19916;-70
2021/01/19 05:14:02;;;;;;;;;;;;;;;1.60;93.70;98592.78;5047358;28;20012;-71
2021/01/19 05:16:30;;;;;;;;;;;;;;;1.60;93.44;98584.91;5046196;28;19935;-70
2021/01/19 05:18:55;;;;;;;;;;;;;;;1.59;93.18;98580.66;5047103;28;19916;-72
2021/01/19 05:21:21;;;;;;;;;;;;;;;1.58;93.20;98552.72;5052375;28;19924;-72
2021/01/19 05:23:46;;;;;;;;;;;;;;;1.59;93.11;98554.38;5052072;28;19920;-72
2021/01/19 05:26:12;;;;;;;;;;;;;;;1.60;92.69;98553.34;5045446;28;19921;-71
2021/01/19 05:28:40;;;;;;;;;;;;;;;1.59;92.79;98552.56;5044362;28;20417;-70
2021/01/19 05:31:06;;;;;;;;;;;;;;;1.61;92.56;98540.00;5046413;28;19920;-71
2021/01/19 05:33:32;;;;;;;;;;;;;;;1.61;92.43;98541.81;5045796;28;19931;-71
2021/01/19 05:36:07;;;;;;;;;;;;;;;1.59;92.15;98530.69;5045673;28;20023;-72
2021/01/19 05:38:49;;;;;;;;;;;;;;;1.60;91.97;98530.50;5052610;28;19925;-70
2021/01/19 05:41:35;;;;;;;;;;;;;;;1.59;91.83;98518.38;5048863;28;19929;-70
2021/01/19 05:44:11;;;;;;;;;;;;;;;1.59;91.64;98515.72;5045982;28;19920;-71
2021/01/19 05:46:40;;;;;;;;;;;;;;;1.58;91.46;98506.22;5050821;28;19988;-69
2021/01/19 05:49:05;;;;;;;;;;;;;;;1.57;91.11;98496.72;5048529;28;19962;-71
2021/01/19 05:51:31;;;;;;;;;;;;;;;1.58;91.03;98492.25;5048962;28;19920;-73
2021/01/19 05:53:57;;;;;;;;;;;;;;;1.57;90.93;98482.75;5050047;28;19921;-71
2021/01/19 05:56:22;;;;;;;;;;;;;;;1.55;90.82;98488.22;5049099;28;19925;-69
2021/01/19 05:58:51;;;;;;;;;;;;;;;1.53;91.33;98484.94;5047698;28;19920;-72
2021/01/19 06:01:34;;;;;;;;;;;;;;;1.53;90.97;98482.31;5048628;28;19928;-72
2021/01/19 06:04:00;;;;;;;;;;;;;;;1.51;91.00;98465.94;5040408;28;19923;-72
2021/01/19 06:06:26;;;;;;;;;;;;;;;1.50;90.51;98467.78;5042637;28;19947;-73
2021/01/19 06:08:59;;;;;;;;;;;;;;;1.49;90.50;98457.44;5041609;28;20297;-70
2021/01/19 06:11:24;;;;;;;;;;;;;;;1.47;90.81;98455.03;5040418;28;19929;-72
2021/01/19 06:13:50;;;;;;;;;;;;;;;1.49;90.71;98447.75;5033075;28;20000;-73
2021/01/19 06:16:15;;;;;;;;;;;;;;;1.47;90.23;98444.50;5040865;28;19928;-72
2021/01/19 06:18:40;;;;;;;;;;;;;;;1.46;90.47;98442.09;5061199;28;20007;-70
2021/01/19 06:21:06;;;;;;;;;;;;;;;1.47;90.29;98438.44;5038384;28;19971;-70
2021/01/19 06:23:31;;;;;;;;;;;;;;;1.44;90.16;98450.16;5046167;28;19929;-70
2021/01/19 06:26:05;;;;;;;;;;;;;;;1.43;90.55;98440.66;5049994;28;19932;-71
2021/01/19 06:28:31;;;;;;;;;;;;;;;1.42;89.92;98446.13;5045256;28;19948;-72
2021/01/19 06:30:56;;;;;;;;;;;;;;;1.42;89.76;98441.66;5042525;28;20366;-73
2021/01/19 06:33:22;;;;;;;;;;;;;;;1.42;89.79;98446.91;5046815;28;20352;-73
2021/01/19 06:35:53;;;;;;;;;;;;;;;1.42;90.29;98435.59;5044163;28;20268;-73
2021/01/19 06:38:19;;;;;;;;;;;;;;;1.41;89.93;98423.47;5045825;28;19925;-71
2021/01/19 06:40:47;;;;;;;;;;;;;;;1.39;90.02;98428.94;5047915;28;20286;-72
2021/01/19 06:43:14;;;;;;;;;;;;;;;1.40;90.18;98413.94;5042296;28;19916;-71
2021/01/19 06:45:41;;;;;;;;;;;;;;;1.37;89.65;98403.84;5047531;28;19924;-72
2021/01/19 06:48:06;;;;;;;;;;;;;;;1.35;89.48;98404.06;5036541;28;19917;-72
2021/01/19 06:50:34;;;;;;;;;;;;;;;1.35;89.48;98409.31;5050463;28;20351;-69
2021/01/19 06:53:18;;;;;;;;;;;;;;;1.27;88.99;98383.19;5041044;28;19925;-72
2021/01/19 06:55:43;;;;;;;;;;;;;;;1.25;88.97;98381.78;5048664;28;19982;-73
2021/01/19 06:58:11;;;;;;;;;;;;;;;1.23;89.18;98368.84;5049553;28;19952;-73
2021/01/19 07:00:38;;;;;;;;;;;;;;;1.17;89.09;98385.41;5050595;28;19932;-70
2021/01/19 07:03:14;;;;;;;;;;;;;;;1.17;89.40;98372.28;5050000;28;20410;-70
2021/01/19 07:05:47;;;;;;;;;;;;;;;1.20;89.24;98366.59;5047136;28;20031;-71
2021/01/19 07:08:24;;;;;;;;;;;;;;;1.20;89.42;98368.44;5049014;28;19917;-70
2021/01/19 07:10:50;;;;;;;;;;;;;;;1.18;89.34;98368.63;5044907;28;20294;-72
2021/01/19 07:13:22;;;;;;;;;;;;;;;1.17;89.26;98355.69;5048498;28;19927;-71
2021/01/19 07:16:07;;;;;;;;;;;;;;;1.16;89.66;98346.19;5050970;28;19920;-74
2021/01/19 07:18:32;;;;;;;;;;;;;;;1.10;90.09;98331.22;5048590;28;19921;-71
2021/01/19 07:21:03;;;;;;;;;;;;;;;1.17;90.21;98343.38;5043644;28;19955;-73
2021/01/19 07:23:46;;;;;;;;;;;;;;;1.16;89.87;98344.38;5050304;28;19917;-72
2021/01/19 07:26:19;;;;;;;;;;;;;;;1.15;90.12;98321.75;5048510;28;19917;-71
2021/01/19 07:28:44;;;;;;;;;;;;;;;1.05;90.24;98326.56;5050734;28;19976;-72
2021/01/19 07:31:10;;;;;;;;;;;;;;;0.98;90.76;98311.81;5048924;28;20298;-73
2021/01/19 07:33:37;;;;;;;;;;;;;;;1.00;91.42;98312.44;5050807;28;20007;-70
2021/01/19 07:36:03;;;;;;;;;;;;;;;0.98;91.37;98317.88;5042309;28;20012;-72
2021/01/19 07:38:28;;;;;;;;;;;;;;;1.00;91.36;98300.09;5040186;28;19960;-71
2021/01/19 07:40:55;;;;;;;;;;;;;;;1.03;91.01;98299.69;5038500;28;19944;-72
2021/01/19 07:43:20;;;;;;;;;;;;;;;0.98;91.29;98285.53;5049828;28;20399;-72
2021/01/19 07:45:49;;;;;;;;;;;;;;;1.00;91.49;98300.09;5047462;28;20047;-71
2021/01/19 07:48:14;;;;;;;;;;;;;;;0.96;91.57;98296.22;5043250;28;19929;-70
2021/01/19 07:50:44;;;;;;;;;;;;;;;0.96;91.69;98271.81;5048592;28;19932;-72
2021/01/19 07:53:09;;;;;;;;;;;;;;;0.95;91.79;98278.88;5048189;28;19957;-70
2021/01/19 07:55:42;;;;;;;;;;;;;;;0.94;92.18;98269.34;5050042;28;20274;-72
2021/01/19 07:58:13;;;;;;;;;;;;;;;0.92;92.00;98270.59;5046607;28;19916;-71
2021/01/19 08:00:39;;;;;;;;;;;;;;;0.87;92.25;98263.31;5042358;28;20319;-68
2021/01/19 08:03:05;;;;;;;;;;;;;;;0.87;92.53;98265.94;5038835;28;19921;-71
2021/01/19 08:05:30;;;;;;;;;;;;;;;0.88;92.23;98259.66;5042026;28;20317;-69
2021/01/19 08:07:57;;;;;;;;;;;;;;;0.88;92.37;98264.91;5044945;28;19917;-71
2021/01/19 08:10:22;;;;;;;;;;;;;;;0.95;92.30;98247.34;5043934;28;19921;-72
2021/01/19 08:12:48;;;;;;;;;;;;;;;0.94;92.13;98243.09;5044254;28;19920;-69
2021/01/19 08:15:17;;;;;;;;;;;;;;;0.90;92.31;98227.94;5041887;28;19925;-69
2021/01/19 08:17:48;;;;;;;;;;;;;;;0.88;92.96;98229.94;5042669;28;19940;-72
2021/01/19 08:20:21;;;;;;;;;;;;;;;0.86;92.65;98214.41;5046174;28;19945;-72
2021/01/19 08:22:47;;;;;;;;;;;;;;;0.88;92.23;98207.13;5043291;28;19917;-70
2021/01/19 08:25:21;;;;;;;;;;;;;;;0.83;93.06;98201.66;5047881;28;19931;-73
2021/01/19 08:27:47;;;;;;;;;;;;;;;0.81;92.65;98206.31;5049173;28;19924;-71
2021/01/19 08:30:30;;;;;;;;;;;;;;;0.84;92.98;98191.97;5045798;28;20011;-70
2021/01/19 08:32:55;;;;;;;;;;;;;;;0.87;93.02;98195.03;5044529;28;19936;-71
2021/01/19 08:35:21;;;;;;;;;;;;;;;0.88;92.98;98190.56;5047804;28;20306;-70
2021/01/19 08:37:49;;;;;;;;;;;;;;;0.90;93.12;98180.66;5046091;28;19970;-72
2021/01/19 08:40:20;;;;;;;;;;;;;;;0.95;92.67;98184.28;5038062;28;19921;-70
2021/01/19 08:42:45;;;;;;;;;;;;;;;0.92;93.31;98166.31;5047552;28;19925;-70
2021/01/19 08:45:11;;;;;;;;;;;;;;;0.89;93.03;98169.34;5050400;28;19943;-70
2021/01/19 08:47:36;;;;;;;;;;;;;;;0.95;92.94;98157.22;5046754;28;19921;-72
2021/01/19 08:50:02;;;;;;;;;;;;;;;0.90;93.01;98157.81;5047098;28;20390;-71
2021/01/19 08:52:28;;;;;;;;;;;;;;;0.93;93.35;98149.53;5052156;28;20015;-71
2021/01/19 08:54:53;;;;;;;;;;;;;;;0.92;93.27;98157.63;5049983;28;20015;-72
2021/01/19 08:57:19;;;;;;;;;;;;;;;0.93;92.96;98160.06;5050701;28;19925;-73
2021/01/19 08:59:50;;;;;;;;;;;;;;;0.98;93.31;98141.88;5053292;28;20003;-73
2021/01/19 09:02:15;;;;;;;;;;;;;;;0.99;92.72;98143.47;5049006;28;19921;-73
2021/01/19 09:04:42;;;;;;;;;;;;;;;0.99;92.88;98129.50;5052488;28;20378;-72
2021/01/19 09:07:08;;;;;;;;;;;;;;;1.01;93.28;98151.94;5055461;28;19921;-72
2021/01/19 09:09:33;;;;;;;;;;;;;;;1.01;92.85;98115.16;5041340;28;19920;-70
2021/01/19 09:11:58;;;;;;;;;;;;;;;1.03;92.79;98123.66;5050744;28;19966;-73
2021/01/19 09:14:25;;;;;;;;;;;;;;;1.06;93.16;98115.38;5056586;28;19932;-70
2021/01/19 09:16:51;;;;;;;;;;;;;;;1.04;93.35;98098.19;5062552;28;19921;-72
2021/01/19 09:19:16;;;;;;;;;;;;;;;0.96;92.91;98093.94;5054014;28;20337;-71
2021/01/19 09:21:41;;;;;;;;;;;;;;;0.94;93.09;98090.72;5058060;28;19929;-72
2021/01/19 09:24:13;;;;;;;;;;;;;;;0.99;93.07;98084.84;5049024;28;19921;-73
2021/01/19 09:29:37;;;;;;;;;;;;;;;0.98;93.93;98081.44;5007350;28;19970;-69
2021/01/19 09:32:03;;;;;;;;;;;;;;;1.03;93.64;98078.16;5048155;28;19929;-72
2021/01/19 09:34:30;;;;;;;;;;;;;;;1.08;93.20;98079.19;5043365;28;19963;-70
2021/01/19 09:36:55;;;;;;;;;;;;;;;1.05;92.98;98081.44;5043550;28;19924;-70
2021/01/19 09:39:28;;;;;;;;;;;;;;;0.95;92.96;98067.91;5046106;28;19917;-69
2021/01/19 09:41:54;;;;;;;;;;;;;;;0.95;93.02;98076.59;5044664;28;20425;-71
2021/01/19 09:44:20;;;;;;;;;;;;;;;0.89;93.35;98066.09;5046049;28;19924;-70
2021/01/19 09:46:46;;;;;;;;;;;;;;;0.91;92.78;98066.69;5044304;28;19917;-68
2021/01/19 09:49:11;;;;;;;;;;;;;;;0.88;92.75;98077.59;5047134;28;19967;-71
2021/01/19 09:51:36;;;;;;;;;;;;;;;0.82;93.19;98063.50;5050666;28;19964;-69
2021/01/19 09:54:01;;;;;;;;;;;;;;;0.76;93.21;98046.72;5051775;28;19976;-71
2021/01/19 09:56:27;;;;;;;;;;;;;;;0.76;93.81;98038.84;5053800;28;19929;-71
2021/01/19 09:59:01;;;;;;;;;;;;;;;0.74;93.98;98042.72;5050204;28;19920;-71
2021/01/19 10:01:27;;;;;;;;;;;;;;;0.73;93.83;98027.94;5040983;28;19925;-71
2021/01/19 10:03:52;;;;;;;;;;;;;;;0.70;94.29;98033.59;5041310;28;19932;-69
2021/01/19 10:06:19;;;;;;;;;;;;;;;0.72;94.47;98034.22;5046811;28;20440;-70
2021/01/19 10:08:47;;;;;;;;;;;;;;;0.73;94.17;98025.31;5042870;28;19956;-71
2021/01/19 10:11:13;;;;;;;;;;;;;;;0.66;94.54;98024.53;5041056;28;19944;-69
2021/01/19 10:13:38;;;;;;;;;;;;;;;0.69;94.17;98029.38;5046220;28;20370;-72
2021/01/19 10:16:04;;;;;;;;;;;;;;;0.68;94.49;98039.06;5041890;28;19946;-73
2021/01/19 10:18:30;;;;;;;;;;;;;;;0.64;94.47;98027.38;5041658;28;19917;-72
2021/01/19 10:20:55;;;;;;;;;;;;;;;0.67;94.87;98028.78;5048448;28;20400;-69
2021/01/19 10:23:28;;;;;;;;;;;;;;;0.72;94.09;98028.97;5050158;28;19960;-69
2021/01/19 10:26:04;;;;;;;;;;;;;;;0.65;94.63;98020.31;5049934;28;19921;-72
2021/01/19 10:28:30;;;;;;;;;;;;;;;0.63;94.98;98023.13;5042676;28;19917;-72
2021/01/19 10:30:55;;;;;;;;;;;;;;;0.63;95.02;98017.88;5041491;28;20417;-72
2021/01/19 10:33:27;;;;;;;;;;;;;;;0.63;95.18;98010.00;5046750;28;19925;-72
2021/01/19 10:35:53;;;;;;;;;;;;;;;0.70;94.39;98012.59;5041788;28;19921;-72
2021/01/19 10:38:24;;;;;;;;;;;;;;;0.69;94.69;98008.38;5039323;28;20666;-72
2021/01/19 10:40:50;;;;;;;;;;;;;;;0.65;95.09;98007.19;5045073;28;20379;-70
2021/01/19 10:43:15;;;;;;;;;;;;;;;0.61;95.11;97992.84;5046872;28;20054;-71
2021/01/19 10:45:42;;;;;;;;;;;;;;;0.67;95.20;97994.66;5041791;28;20034;-72
2021/01/19 10:48:17;;;;;;;;;;;;;;;0.64;95.06;97989.78;5047166;28;20046;-72
2021/01/19 10:50:43;;;;;;;;;;;;;;;0.59;95.29;97989.63;5052394;28;19928;-72
2021/01/19 10:53:08;;;;;;;;;;;;;;;0.64;95.15;97979.28;5039668;28;19933;-69
2021/01/19 10:55:33;;;;;;;;;;;;;;;0.55;95.22;97976.09;5043641;28;19953;-71
2021/01/19 10:58:02;;;;;;;;;;;;;;;0.58;95.06;97980.13;5045171;28;19921;-71
2021/01/19 11:00:28;;;;;;;;;;;;;;;0.53;95.25;97978.13;5048314;28;19917;-70
2021/01/19 11:02:54;;;;;;;;;;;;;;;0.51;95.54;97958.34;5044642;28;19916;-70
2021/01/19 11:05:19;;;;;;;;;;;;;;;0.50;96.00;97943.63;5029730;28;19925;-71
2021/01/19 11:07:49;;;;;;;;;;;;;;;0.52;96.01;97952.09;5039964;28;19921;-69
2021/01/19 11:10:15;;;;;;;;;;;;;;;0.53;96.09;97945.81;5035886;28;20294;-70
2021/01/19 11:12:41;;;;;;;;;;;;;;;0.54;95.89;97942.19;5035177;28;20343;-71
2021/01/19 11:15:07;;;;;;;;;;;;;;;0.51;96.09;97937.34;5046181;28;20007;-72
2021/01/19 11:17:32;;;;;;;;;;;;;;;0.52;95.48;97952.09;5044772;28;19924;-71
2021/01/19 11:19:57;;;;;;;;;;;;;;;0.50;95.79;97941.78;5046779;28;19921;-69
2021/01/19 11:22:23;;;;;;;;;;;;;;;0.52;95.42;97944.22;5046365;28;19947;-69
2021/01/19 11:24:48;;;;;;;;;;;;;;;0.52;95.36;97942.41;5047388;28;19917;-69
2021/01/19 11:27:13;;;;;;;;;;;;;;;0.52;95.44;97931.09;5046440;28;19916;-72
2021/01/19 11:29:39;;;;;;;;;;;;;;;0.56;95.33;97938.34;5048326;28;19929;-71
2021/01/19 11:32:04;;;;;;;;;;;;;;;0.55;95.22;97914.91;5046839;28;20990;-68
2021/01/19 11:34:29;;;;;;;;;;;;;;;0.56;95.86;97914.72;5048015;28;19917;-71
2021/01/19 11:36:54;;;;;;;;;;;;;;;0.57;95.35;97923.38;5051233;28;19924;-72
2021/01/19 11:39:20;;;;;;;;;;;;;;;0.57;95.84;97903.19;5048743;28;19929;-71
2021/01/19 11:41:45;;;;;;;;;;;;;;;0.59;95.84;97882.78;5050168;28;19929;-72
2021/01/19 11:44:11;;;;;;;;;;;;;;;0.63;95.62;97889.22;5050277;28;20389;-70
2021/01/19 11:46:38;;;;;;;;;;;;;;;0.60;95.82;97881.78;5050646;28;20345;-70
2021/01/19 11:49:04;;;;;;;;;;;;;;;0.65;95.60;97894.28;5049998;28;19925;-73
2021/01/19 11:51:34;;;;;;;;;;;;;;;0.69;95.67;97877.91;5050439;28;20371;-70
2021/01/19 11:54:02;;;;;;;;;;;;;;;0.66;95.85;97872.25;5049573;28;20205;-73
2021/01/19 11:56:38;;;;;;;;;;;;;;;0.69;95.01;97877.09;5050710;28;20001;-71
2021/01/19 11:59:03;;;;;;;;;;;;;;;0.69;95.47;97867.41;5049988;28;19925;-71
2021/01/19 12:01:29;;;;;;;;;;;;;;;0.69;95.57;97862.16;5045940;28;20286;-70
2021/01/19 12:03:54;;;;;;;;;;;;;;;0.69;95.42;97877.09;5048696;28;20004;-71
2021/01/19 12:06:19;;;;;;;;;;;;;;;0.71;95.70;97869.81;5047443;28;20004;-70
2021/01/19 12:08:45;;;;;;;;;;;;;;;0.69;95.69;97869.22;5047192;28;19964;-72
2021/01/19 12:11:11;;;;;;;;;;;;;;;0.64;95.04;97864.59;5049299;28;19917;-69
2021/01/19 12:13:36;;;;;;;;;;;;;;;0.67;95.16;97856.31;5049114;28;19927;-71
2021/01/19 12:16:02;;;;;;;;;;;;;;;0.69;95.65;97842.97;5041423;28;19927;-71
2021/01/19 12:18:27;;;;;;;;;;;;;;;0.70;95.73;97860.31;5041027;28;19920;-71
2021/01/19 12:20:52;;;;;;;;;;;;;;;0.71;95.45;97846.19;5040697;28;19921;-71
2021/01/19 12:23:17;;;;;;;;;;;;;;;0.72;95.23;97853.84;5044260;28;19917;-69
2021/01/19 12:25:43;;;;;;;;;;;;;;;0.76;95.32;97836.63;5033612;28;20367;-72
2021/01/19 12:28:08;;;;;;;;;;;;;;;0.77;95.47;97848.75;5048504;28;19917;-71
2021/01/19 12:30:33;;;;;;;;;;;;;;;0.77;95.29;97827.75;5044864;28;20370;-69
2021/01/19 12:32:58;;;;;;;;;;;;;;;0.75;95.16;97842.09;5046433;28;19978;-69
2021/01/19 12:35:24;;;;;;;;;;;;;;;0.78;95.02;97839.06;5048392;28;19920;-69
2021/01/19 12:37:52;;;;;;;;;;;;;;;0.78;94.62;97836.44;5044340;28;19921;-70
2021/01/19 12:40:18;;;;;;;;;;;;;;;0.80;95.00;97813.41;5043677;28;19923;-69
2021/01/19 12:42:43;;;;;;;;;;;;;;;0.80;95.49;97820.47;5046964;28;19917;-71
2021/01/19 12:45:08;;;;;;;;;;;;;;;0.84;95.55;97816.41;5047656;28;19921;-70
2021/01/19 12:47:34;;;;;;;;;;;;;;;0.87;95.29;97808.09;5048555;28;20390;-74
2021/01/19 12:49:59;;;;;;;;;;;;;;;0.88;94.99;97812.31;5049320;28;19927;-71
2021/01/19 12:52:24;;;;;;;;;;;;;;;0.89;95.66;97813.94;5050522;28;19958;-72
2021/01/19 12:54:49;;;;;;;;;;;;;;;0.95;95.51;97824.41;5052421;28;20010;-72
2021/01/19 12:57:15;;;;;;;;;;;;;;;0.98;95.04;97794.28;5051357;28;20014;-75
2021/01/19 12:59:43;;;;;;;;;;;;;;;0.99;95.02;97801.94;5050453;28;19924;-69